Time;durP1;ratioP1;P1;durP2;ratioP2;P2;SDS_P1;SDS_P2;PMS_P1;PMS_P2;Temp;Humidity;BMP_temperature;BMP_pressure;BME280_temperature;BME280_humidity;BME280_pressure;Samples;Min_cycle;Max_cycle;Signal;HPM_P1;HPM_P2
2020/12/06 00:01:48;;;;;;;23.30;18.20;;;;;;;7.35;82.36;94606.00;5075275;28;20455;-61
2020/12/06 00:04:19;;;;;;;19.00;15.87;;;;;;;7.40;82.89;94609.44;5075140;28;20666;-61
2020/12/06 00:06:45;;;;;;;24.47;17.20;;;;;;;7.43;82.52;94592.50;5075085;28;20633;-65
2020/12/06 00:09:11;;;;;;;19.77;16.50;;;;;;;7.45;83.18;94599.03;5075484;28;20427;-62
2020/12/06 00:11:36;;;;;;;21.50;16.60;;;;;;;7.43;83.07;94601.09;5074378;28;20421;-61
2020/12/06 00:14:02;;;;;;;23.83;17.57;;;;;;;7.42;82.93;94586.47;5074744;28;20744;-61
2020/12/06 00:16:27;;;;;;;19.00;14.97;;;;;;;7.45;82.80;94579.94;5074871;28;20179;-61
2020/12/06 00:18:53;;;;;;;17.67;15.20;;;;;;;7.42;82.75;94588.28;5074934;28;20271;-65
2020/12/06 00:21:19;;;;;;;21.50;16.33;;;;;;;7.33;83.00;94595.78;5074186;28;20178;-65
2020/12/06 00:23:46;;;;;;;21.03;17.37;;;;;;;7.37;82.52;94603.91;5074500;28;20179;-65
2020/12/06 00:26:20;;;;;;;22.40;17.30;;;;;;;7.34;82.73;94601.81;5074551;28;20487;-61
2020/12/06 00:28:45;;;;;;;22.07;16.60;;;;;;;7.34;82.60;94592.13;5074992;28;20429;-65
2020/12/06 00:31:11;;;;;;;21.50;17.20;;;;;;;7.36;82.80;94591.88;5074815;28;20409;-62
2020/12/06 00:33:36;;;;;;;24.30;16.83;;;;;;;7.39;83.08;94584.38;5074069;28;20199;-65
2020/12/06 00:36:01;;;;;;;22.03;16.90;;;;;;;7.41;82.86;94584.88;5074884;28;20167;-62
2020/12/06 00:38:27;;;;;;;19.80;16.20;;;;;;;7.44;82.94;94571.34;5074479;28;20564;-65
2020/12/06 00:40:52;;;;;;;22.43;16.40;;;;;;;7.43;82.96;94554.06;5074218;28;20269;-62
2020/12/06 00:43:18;;;;;;;20.23;15.50;;;;;;;7.45;83.42;94544.16;5074953;28;20170;-61
2020/12/06 00:45:43;;;;;;;18.83;16.00;;;;;;;7.47;82.91;94538.66;5074680;28;20228;-61
2020/12/06 00:48:08;;;;;;;21.47;15.50;;;;;;;7.47;83.12;94523.78;5073944;28;20176;-61
2020/12/06 00:50:34;;;;;;;23.00;16.27;;;;;;;7.54;83.15;94529.59;5074024;28;20538;-65
2020/12/06 00:52:59;;;;;;;22.90;16.20;;;;;;;7.50;83.48;94509.44;5074046;28;20223;-65
2020/12/06 00:55:24;;;;;;;22.93;16.83;;;;;;;7.46;83.31;94501.34;5074373;28;20234;-65
2020/12/06 00:57:50;;;;;;;17.13;14.23;;;;;;;7.45;83.90;94480.66;5073878;28;20175;-65
2020/12/06 01:00:15;;;;;;;18.50;15.00;;;;;;;7.45;83.58;94494.50;5074300;28;20665;-64
2020/12/06 01:02:41;;;;;;;21.17;15.70;;;;;;;7.52;83.10;94507.38;5074260;28;20194;-61
2020/12/06 01:05:07;;;;;;;18.00;14.37;;;;;;;7.48;83.56;94516.75;5073741;28;20173;-66
2020/12/06 01:07:39;;;;;;;15.63;13.17;;;;;;;7.44;83.59;94505.22;5073200;28;20545;-65
2020/12/06 01:10:06;;;;;;;15.47;12.73;;;;;;;7.44;83.41;94500.78;5073668;28;20952;-65
2020/12/06 01:12:32;;;;;;;18.37;13.80;;;;;;;7.50;83.79;94481.47;5073169;28;20537;-65
2020/12/06 01:14:57;;;;;;;16.50;13.10;;;;;;;7.40;83.66;94491.88;5074239;28;20490;-62
2020/12/06 01:17:23;;;;;;;18.30;14.80;;;;;;;7.37;83.90;94507.28;5073394;28;20652;-62
2020/12/06 01:19:48;;;;;;;17.80;14.30;;;;;;;7.38;83.15;94514.06;5073649;28;20196;-61
2020/12/06 01:22:14;;;;;;;17.43;14.97;;;;;;;7.42;84.13;94528.19;5073912;28;20184;-61
2020/12/06 01:24:39;;;;;;;17.50;15.30;;;;;;;7.46;83.56;94529.28;5073978;28;20221;-61
2020/12/06 01:27:04;;;;;;;17.00;14.73;;;;;;;7.51;83.82;94545.78;5072820;28;20191;-65
2020/12/06 01:29:30;;;;;;;17.73;15.67;;;;;;;7.46;83.45;94553.59;5073651;28;20203;-61
2020/12/06 01:31:55;;;;;;;19.40;15.00;;;;;;;7.54;83.05;94540.03;5073658;28;20557;-61
2020/12/06 01:34:20;;;;;;;17.33;15.00;;;;;;;7.57;82.94;94549.22;5073655;28;20207;-64
2020/12/06 01:36:50;;;;;;;16.07;14.37;;;;;;;7.57;83.48;94551.81;5073027;28;20183;-61
2020/12/06 01:39:15;;;;;;;15.83;14.00;;;;;;;7.55;82.58;94551.28;5073258;28;20191;-64
2020/12/06 01:41:41;;;;;;;18.70;15.67;;;;;;;7.53;82.93;94548.94;5073706;28;20426;-61
2020/12/06 01:44:06;;;;;;;19.23;15.23;;;;;;;7.51;82.13;94553.63;5073517;28;20191;-61
2020/12/06 01:46:36;;;;;;;19.30;15.83;;;;;;;7.40;82.78;94559.81;5072232;28;20540;-65
2020/12/06 01:49:02;;;;;;;19.10;16.67;;;;;;;7.32;82.56;94574.09;5073214;28;20198;-61
2020/12/06 01:51:27;;;;;;;19.00;15.93;;;;;;;7.31;82.80;94558.69;5073401;28;20771;-62
2020/12/06 01:53:53;;;;;;;18.63;15.93;;;;;;;7.32;83.42;94558.44;5073173;28;20693;-65
2020/12/06 01:56:18;;;;;;;17.10;15.10;;;;;;;7.29;83.27;94543.28;5072623;28;20181;-66
2020/12/06 01:58:44;;;;;;;18.27;14.30;;;;;;;7.34;83.36;94545.13;5073315;28;20288;-65
2020/12/06 02:01:11;;;;;;;16.60;14.20;;;;;;;7.32;82.51;94541.19;5073030;28;20168;-65
2020/12/06 02:03:37;;;;;;;18.43;13.80;;;;;;;7.32;82.75;94552.41;5073260;28;20194;-61
2020/12/06 02:06:04;;;;;;;15.20;13.57;;;;;;;7.32;83.17;94541.97;5073422;28;20775;-61
2020/12/06 02:08:29;;;;;;;16.67;14.90;;;;;;;7.35;83.47;94531.03;5071568;28;20536;-61
2020/12/06 02:10:55;;;;;;;16.10;14.10;;;;;;;7.38;83.05;94530.53;5072908;28;20444;-61
2020/12/06 02:13:21;;;;;;;17.13;14.00;;;;;;;7.40;82.86;94527.66;5073402;28;20195;-62
2020/12/06 02:15:47;;;;;;;16.43;13.37;;;;;;;7.45;83.13;94517.22;5073503;28;20172;-65
2020/12/06 02:18:12;;;;;;;16.03;14.00;;;;;;;7.45;82.38;94515.41;5072674;28;20436;-64
2020/12/06 02:20:38;;;;;;;17.33;14.13;;;;;;;7.41;82.15;94518.78;5072956;28;20285;-61
2020/12/06 02:23:04;;;;;;;15.90;13.63;;;;;;;7.36;82.06;94516.94;5072969;28;20176;-64
2020/12/06 02:25:34;;;;;;;17.43;12.97;;;;;;;7.24;83.29;94522.34;5073418;28;20164;-64
2020/12/06 02:28:00;;;;;;;17.17;13.80;;;;;;;7.27;82.64;94534.09;5072774;28;20417;-65
2020/12/06 02:30:25;;;;;;;17.40;14.13;;;;;;;7.19;83.80;94529.34;5073100;28;20432;-65
2020/12/06 02:32:51;;;;;;;15.47;13.87;;;;;;;7.21;83.20;94522.81;5072589;28;20685;-64
2020/12/06 02:35:16;;;;;;;17.27;14.03;;;;;;;7.11;83.77;94501.06;5072919;28;20176;-65
2020/12/06 02:37:41;;;;;;;18.80;15.10;;;;;;;7.20;83.30;94502.97;5072658;28;20545;-65
2020/12/06 02:40:07;;;;;;;17.70;13.27;;;;;;;7.23;83.20;94501.69;5073112;28;20600;-61
2020/12/06 02:42:32;;;;;;;17.93;15.10;;;;;;;7.23;82.73;94489.41;5073040;28;20163;-61
2020/12/06 02:44:57;;;;;;;19.80;14.37;;;;;;;7.04;83.40;94474.41;5072519;28;20182;-62
2020/12/06 02:47:23;;;;;;;18.40;14.50;;;;;;;7.11;83.56;94475.75;5072368;28;20170;-65
2020/12/06 02:49:48;;;;;;;20.20;15.20;;;;;;;7.14;83.63;94472.63;5072853;28;20564;-61
2020/12/06 02:52:13;;;;;;;17.80;14.40;;;;;;;7.22;83.16;94476.59;5072646;28;20212;-60
2020/12/06 02:54:39;;;;;;;16.33;13.00;;;;;;;7.23;82.70;94480.78;5073041;28;20198;-65
2020/12/06 02:57:04;;;;;;;20.63;15.60;;;;;;;7.24;83.46;94490.22;5072683;28;20626;-65
2020/12/06 02:59:29;;;;;;;19.10;15.87;;;;;;;7.22;83.36;94498.28;5072785;28;20183;-65
2020/12/06 03:01:55;;;;;;;18.00;14.33;;;;;;;7.19;82.91;94485.72;5072803;28;20176;-64
2020/12/06 03:04:20;;;;;;;20.43;15.10;;;;;;;7.13;82.85;94478.91;5071619;28;20198;-61
2020/12/06 03:06:45;;;;;;;21.10;15.10;;;;;;;7.19;83.14;94487.56;5072501;28;20170;-65
2020/12/06 03:09:11;;;;;;;22.27;16.27;;;;;;;7.16;82.62;94488.03;5072468;28;20255;-65
2020/12/06 03:11:36;;;;;;;18.97;15.60;;;;;;;6.99;83.40;94482.19;5072869;28;20529;-65
2020/12/06 03:14:02;;;;;;;23.17;17.67;;;;;;;6.91;83.87;94493.09;5072931;28;20224;-65
2020/12/06 03:16:27;;;;;;;25.37;17.57;;;;;;;6.98;83.92;94499.66;5072401;28;20179;-65
2020/12/06 03:18:52;;;;;;;23.17;17.67;;;;;;;6.97;83.82;94518.19;5072697;28;20279;-65
2020/12/06 03:21:18;;;;;;;24.17;17.70;;;;;;;7.03;83.83;94517.97;5072440;28;20175;-61
2020/12/06 03:23:43;;;;;;;23.70;18.73;;;;;;;7.01;83.71;94516.69;5072835;28;20588;-61
2020/12/06 03:26:08;;;;;;;26.60;19.13;;;;;;;7.08;84.06;94509.41;5072657;28;20166;-64
2020/12/06 03:28:34;;;;;;;25.47;18.83;;;;;;;7.17;83.06;94515.75;5072375;28;20182;-61
2020/12/06 03:30:59;;;;;;;24.90;18.90;;;;;;;7.19;83.26;94509.22;5074950;28;20206;-61
2020/12/06 03:33:25;;;;;;;27.40;20.50;;;;;;;7.21;82.76;94501.16;5076070;28;20197;-61
2020/12/06 03:35:50;;;;;;;26.00;19.60;;;;;;;7.13;83.22;94488.56;5076579;28;20190;-64
2020/12/06 03:38:16;;;;;;;28.97;19.87;;;;;;;7.13;82.59;94497.19;5075206;28;20527;-62
2020/12/06 03:40:41;;;;;;;25.07;19.00;;;;;;;7.05;83.81;94502.84;5075555;28;20207;-64
2020/12/06 03:43:07;;;;;;;25.37;18.53;;;;;;;6.96;83.11;94519.22;5076174;28;20171;-64
2020/12/06 03:45:32;;;;;;;26.03;19.60;;;;;;;7.00;83.57;94513.25;5076126;28;20167;-61
2020/12/06 03:47:58;;;;;;;28.13;20.07;;;;;;;7.08;83.76;94501.59;5075250;28;20183;-61
2020/12/06 03:50:23;;;;;;;27.83;19.73;;;;;;;7.03;82.83;94484.03;5075860;28;20202;-61
2020/12/06 03:52:49;;;;;;;26.47;18.80;;;;;;;7.13;83.26;94483.34;5075769;28;20194;-61
2020/12/06 03:55:15;;;;;;;24.73;18.70;;;;;;;7.06;82.23;94491.41;5075600;28;20207;-61
2020/12/06 03:57:41;;;;;;;27.17;18.93;;;;;;;6.97;83.27;94492.09;5075296;28;20425;-61
2020/12/06 04:00:06;;;;;;;27.13;18.50;;;;;;;6.98;82.50;94501.50;5075642;28;20214;-61
2020/12/06 04:02:31;;;;;;;28.27;18.97;;;;;;;6.88;82.35;94504.03;5075416;28;20548;-64
2020/12/06 04:04:57;;;;;;;38.33;17.90;;;;;;;6.71;82.76;94498.91;5075704;28;20206;-61
2020/12/06 04:07:22;;;;;;;35.60;17.00;;;;;;;6.73;83.68;94496.06;5075277;28;20629;-61
2020/12/06 04:09:48;;;;;;;24.90;17.90;;;;;;;6.88;82.77;94509.25;5074768;28;20198;-64
2020/12/06 04:12:13;;;;;;;27.13;18.03;;;;;;;6.82;82.94;94503.19;5075379;28;20197;-64
2020/12/06 04:14:38;;;;;;;42.23;18.60;;;;;;;6.81;83.31;94506.06;5075649;28;20230;-62
2020/12/06 04:17:04;;;;;;;23.10;17.40;;;;;;;6.83;83.20;94504.75;5074821;28;20190;-65
2020/12/06 04:19:29;;;;;;;61.97;19.63;;;;;;;6.83;83.56;94498.78;5075333;28;20198;-61
2020/12/06 04:21:55;;;;;;;25.60;16.50;;;;;;;6.77;83.78;94494.53;5075456;28;20521;-64
2020/12/06 04:24:20;;;;;;;30.70;18.43;;;;;;;6.87;82.95;94492.00;5074953;28;20587;-61
2020/12/06 04:26:46;;;;;;;30.90;18.03;;;;;;;6.85;82.76;94505.31;5074932;28;20177;-62
2020/12/06 04:29:11;;;;;;;28.70;19.20;;;;;;;6.93;83.19;94502.25;5074761;28;20251;-62
2020/12/06 04:31:36;;;;;;;97.53;22.10;;;;;;;6.77;83.59;94507.59;5075113;28;20203;-64
2020/12/06 04:34:02;;;;;;;74.50;22.27;;;;;;;6.75;83.34;94502.63;5074803;28;20205;-65
2020/12/06 04:36:27;;;;;;;63.40;20.40;;;;;;;6.75;83.48;94512.25;5074879;28;20274;-65
2020/12/06 04:38:53;;;;;;;37.30;18.17;;;;;;;6.68;83.24;94503.84;5074801;28;20240;-61
2020/12/06 04:41:18;;;;;;;62.83;20.27;;;;;;;6.62;84.23;94504.81;5074469;28;20182;-61
2020/12/06 04:43:44;;;;;;;42.93;19.03;;;;;;;6.67;85.11;94497.03;5074641;28;20171;-61
2020/12/06 04:46:10;;;;;;;32.00;19.47;;;;;;;6.66;84.45;94493.66;5075349;28;20237;-61
2020/12/06 04:48:47;;;;;;;171.93;25.53;;;;;;;6.53;84.56;94501.09;5074392;28;20170;-61
2020/12/06 04:51:14;;;;;;;25.93;17.70;;;;;;;6.37;86.58;94515.81;5074888;28;20448;-65
2020/12/06 04:53:46;;;;;;;402.07;32.77;;;;;;;6.21;86.70;94533.09;5074318;28;20505;-64
2020/12/06 04:56:12;;;;;;;38.20;17.47;;;;;;;6.10;86.93;94533.22;5074876;28;20504;-65
2020/12/06 04:58:42;;;;;;;27.53;16.73;;;;;;;6.17;87.07;94532.03;5073811;28;20512;-64
2020/12/06 05:01:07;;;;;;;26.67;17.67;;;;;;;6.34;86.96;94523.34;5074582;28;20163;-61
2020/12/06 05:03:36;;;;;;;25.90;16.80;;;;;;;6.48;85.98;94524.50;5074648;28;20413;-65
2020/12/06 05:06:03;;;;;;;50.33;20.30;;;;;;;6.50;86.66;94507.59;5074422;28;20586;-61
2020/12/06 05:08:34;;;;;;;34.90;18.23;;;;;;;6.46;86.46;94514.34;5073831;28;20425;-61
2020/12/06 05:11:00;;;;;;;55.10;20.23;;;;;;;6.53;85.37;94520.13;5074183;28;20406;-65
2020/12/06 05:13:25;;;;;;;33.93;19.50;;;;;;;6.60;86.17;94525.94;5074147;28;20457;-64
2020/12/06 05:15:53;;;;;;;75.67;22.57;;;;;;;6.65;86.27;94510.34;5074306;28;20409;-64
2020/12/06 05:18:18;;;;;;;113.63;21.80;;;;;;;6.67;85.52;94513.50;5073947;28;20266;-64
2020/12/06 05:20:45;;;;;;;41.30;19.03;;;;;;;6.65;85.93;94496.53;5074163;28;20502;-61
2020/12/06 05:23:12;;;;;;;44.47;20.50;;;;;;;6.70;86.31;94497.34;5073867;28;20246;-61
2020/12/06 05:25:38;;;;;;;44.40;20.37;;;;;;;6.66;86.19;94488.44;5073956;28;20794;-61
2020/12/06 05:28:03;;;;;;;24.07;18.17;;;;;;;6.63;85.52;94495.97;5073751;28;20497;-61
2020/12/06 05:30:29;;;;;;;32.57;19.40;;;;;;;6.61;85.45;94503.25;5073903;28;20447;-61
2020/12/06 05:32:57;;;;;;;32.30;20.67;;;;;;;6.49;85.99;94510.44;5074024;28;20274;-65
2020/12/06 05:35:23;;;;;;;105.77;23.60;;;;;;;6.63;86.16;94522.84;5074069;28;20189;-61
2020/12/06 05:37:49;;;;;;;38.37;21.40;;;;;;;6.59;84.97;94521.78;5073285;28;20417;-65
2020/12/06 05:40:18;;;;;;;33.27;21.27;;;;;;;6.54;85.61;94520.94;5073155;28;20285;-61
2020/12/06 05:42:45;;;;;;;43.63;21.43;;;;;;;6.60;85.26;94525.94;5073806;28;20437;-61
2020/12/06 05:45:11;;;;;;;37.73;21.53;;;;;;;6.51;84.51;94511.75;5073810;28;20455;-61
2020/12/06 05:47:37;;;;;;;45.40;22.03;;;;;;;6.42;84.77;94500.19;5073144;28;20409;-62
2020/12/06 05:50:04;;;;;;;33.17;20.17;;;;;;;6.42;84.77;94504.63;5073828;28;20432;-65
2020/12/06 05:52:31;;;;;;;36.63;21.60;;;;;;;6.38;84.03;94511.38;5072879;28;20198;-62
2020/12/06 05:54:58;;;;;;;37.07;21.50;;;;;;;6.46;85.40;94510.94;5073344;28;20421;-62
2020/12/06 05:57:28;;;;;;;62.33;22.87;;;;;;;6.51;84.74;94505.75;5073373;28;20408;-61
2020/12/06 06:00:01;;;;;;;38.53;22.17;;;;;;;6.38;83.80;94508.78;5073394;28;20440;-65
2020/12/06 06:02:27;;;;;;;35.20;20.40;;;;;;;6.42;84.42;94522.88;5073635;28;20407;-61
2020/12/06 06:04:57;;;;;;;46.90;21.47;;;;;;;6.46;84.15;94518.75;5073451;28;20459;-66
2020/12/06 06:07:23;;;;;;;36.50;19.10;;;;;;;6.45;84.59;94511.97;5072897;28;20467;-63
2020/12/06 06:09:57;;;;;;;35.50;20.20;;;;;;;6.36;84.45;94519.44;5071882;28;20453;-61
2020/12/06 06:12:32;;;;;;;61.10;21.47;;;;;;;6.29;85.72;94528.50;5073426;28;20475;-61
2020/12/06 06:15:00;;;;;;;48.03;19.37;;;;;;;6.34;85.14;94528.53;5073295;28;20774;-61
2020/12/06 06:17:27;;;;;;;94.83;22.97;;;;;;;6.19;85.48;94524.75;5073054;28;20495;-62
2020/12/06 06:19:53;;;;;;;153.17;23.00;;;;;;;6.06;85.83;94519.09;5073457;28;20482;-61
2020/12/06 06:22:33;;;;;;;115.17;21.83;;;;;;;5.75;86.99;94514.50;5072420;28;20428;-62
2020/12/06 06:25:03;;;;;;;73.50;20.70;;;;;;;5.63;87.35;94513.84;5053311;28;20258;-64
2020/12/06 06:27:34;;;;;;;126.57;22.07;;;;;;;5.49;88.68;94523.78;5052568;28;20426;-61
2020/12/06 06:29:59;;;;;;;68.80;18.97;;;;;;;5.65;87.67;94525.56;5062418;28;21017;-65
2020/12/06 06:32:26;;;;;;;119.20;22.60;;;;;;;5.68;88.57;94530.31;5072941;28;20452;-61
2020/12/06 06:34:52;;;;;;;101.07;20.53;;;;;;;5.63;88.93;94553.69;5073218;28;20178;-64
2020/12/06 06:37:17;;;;;;;87.63;22.20;;;;;;;5.84;88.28;94573.81;5072145;28;20910;-65
2020/12/06 06:39:43;;;;;;;115.67;22.83;;;;;;;5.80;88.28;94575.28;5073207;28;20591;-61
2020/12/06 06:42:12;;;;;;;231.30;25.33;;;;;;;5.65;88.95;94584.72;5073288;28;20261;-61
2020/12/06 06:44:43;;;;;;;42.40;19.70;;;;;;;5.45;89.59;94579.22;5073040;28;20540;-65
2020/12/06 06:47:13;;;;;;;125.03;21.80;;;;;;;5.67;89.47;94590.47;5072464;28;20897;-64
2020/12/06 06:49:59;;;;;;;70.97;20.77;;;;;;;5.74;88.66;94593.69;5072822;28;20439;-64
2020/12/06 06:52:29;;;;;;;44.43;19.77;;;;;;;5.86;87.76;94597.03;5073169;28;20449;-64
2020/12/06 06:54:57;;;;;;;103.80;21.00;;;;;;;5.76;88.49;94587.22;5072843;28;20409;-62
2020/12/06 06:57:26;;;;;;;124.47;20.00;;;;;;;5.63;88.70;94595.38;5072395;28;20975;-65
2020/12/06 06:59:53;;;;;;;193.37;23.57;;;;;;;5.64;90.08;94596.16;5072352;28;20812;-62
2020/12/06 07:02:21;;;;;;;32.40;17.03;;;;;;;5.42;89.81;94596.09;5071847;28;20437;-65
2020/12/06 07:04:47;;;;;;;112.37;19.93;;;;;;;5.33;90.81;94596.72;5073232;28;20890;-60
2020/12/06 07:07:17;;;;;;;57.63;17.53;;;;;;;5.44;91.34;94598.44;5076428;28;20411;-61
2020/12/06 07:09:43;;;;;;;46.93;17.20;;;;;;;5.50;91.00;94587.88;5076253;28;20929;-65
2020/12/06 07:12:10;;;;;;;122.83;20.37;;;;;;;5.38;91.19;94589.00;5075870;28;20481;-61
2020/12/06 07:14:35;;;;;;;94.43;18.13;;;;;;;5.39;91.77;94596.56;5076504;28;20171;-64
2020/12/06 07:17:01;;;;;;;100.77;23.10;;;;;;;5.15;92.92;94595.13;5075881;28;20420;-60
2020/12/06 07:19:27;;;;;;;34.17;17.07;;;;;;;4.98;93.75;94587.28;5076378;28;20193;-61
2020/12/06 07:21:52;;;;;;;138.87;20.37;;;;;;;5.01;94.52;94592.06;5076297;28;20234;-64
2020/12/06 07:24:18;;;;;;;56.27;18.63;;;;;;;5.34;93.21;94586.09;5076540;28;20201;-65
2020/12/06 07:26:46;;;;;;;71.93;19.37;;;;;;;5.49;91.29;94581.09;5075882;28;20617;-65
2020/12/06 07:29:13;;;;;;;65.87;16.50;;;;;;;5.35;93.11;94582.44;5076601;28;20431;-64
2020/12/06 07:31:38;;;;;;;59.37;17.73;;;;;;;5.42;92.05;94582.28;5076135;28;20424;-65
2020/12/06 07:34:05;;;;;;;90.83;18.77;;;;;;;5.45;92.11;94571.41;5076170;28;20519;-61
2020/12/06 07:36:32;;;;;;;93.07;21.73;;;;;;;5.66;91.33;94575.84;5075695;28;20537;-61
2020/12/06 07:38:58;;;;;;;104.17;23.20;;;;;;;5.43;92.22;94584.66;5076254;28;20459;-61
2020/12/06 07:41:24;;;;;;;55.17;19.87;;;;;;;5.34;93.43;94575.66;5075745;28;20459;-64
2020/12/06 07:43:53;;;;;;;109.43;25.20;;;;;;;5.28;93.40;94568.00;5076132;28;20427;-65
2020/12/06 07:46:20;;;;;;;41.13;26.97;;;;;;;5.31;93.41;94576.13;5075352;28;20228;-66
2020/12/06 07:48:47;;;;;;;139.30;18.20;;;;;;;5.16;94.15;94588.91;5075577;28;20427;-65
2020/12/06 07:51:12;;;;;;;57.10;16.10;;;;;;;5.15;94.78;94582.13;5075959;28;20460;-62
2020/12/06 07:53:51;;;;;;;77.67;18.43;;;;;;;5.28;94.40;94581.00;5075568;28;20487;-61
2020/12/06 07:56:21;;;;;;;112.33;30.03;;;;;;;5.32;93.60;94592.53;5074261;28;20188;-71
2020/12/06 07:59:03;;;;;;;46.83;18.50;;;;;;;5.43;93.17;94602.88;5075907;28;20410;-61
2020/12/06 08:01:30;;;;;;;106.10;18.53;;;;;;;5.38;93.24;94612.44;5076066;28;20444;-64
2020/12/06 08:03:56;;;;;;;120.33;19.00;;;;;;;5.20;94.74;94611.63;5075603;28;20438;-65
2020/12/06 08:06:25;;;;;;;38.57;20.50;;;;;;;5.32;94.29;94595.13;5075325;28;20408;-65
2020/12/06 08:08:54;;;;;;;32.40;16.70;;;;;;;5.48;93.76;94599.56;5075050;28;20427;-65
2020/12/06 08:11:20;;;;;;;48.13;41.10;;;;;;;5.66;92.27;94613.13;5055587;28;20422;-61
2020/12/06 08:13:52;;;;;;;70.10;26.00;;;;;;;5.72;92.18;94611.38;5057587;28;20450;-65
2020/12/06 08:16:18;;;;;;;34.40;17.07;;;;;;;5.60;93.35;94606.25;5074824;28;20412;-61
2020/12/06 08:18:44;;;;;;;60.57;16.67;;;;;;;5.78;92.55;94610.44;5075061;28;20769;-64
2020/12/06 08:21:10;;;;;;;43.27;15.50;;;;;;;5.83;91.07;94615.75;5075473;28;20166;-61
2020/12/06 08:23:37;;;;;;;33.13;17.80;;;;;;;5.78;91.16;94600.78;5074857;28;20416;-65
2020/12/06 08:26:03;;;;;;;67.40;14.10;;;;;;;5.77;91.55;94590.59;5074810;28;20240;-61
2020/12/06 08:28:30;;;;;;;25.47;13.40;;;;;;;5.65;91.93;94592.53;5074257;28;20492;-65
2020/12/06 08:30:55;;;;;;;25.73;13.13;;;;;;;5.51;92.22;94599.88;5075251;28;20519;-61
2020/12/06 08:33:25;;;;;;;29.00;14.37;;;;;;;5.78;93.02;94594.81;5075718;28;20543;-61
2020/12/06 08:35:52;;;;;;;33.73;15.87;;;;;;;5.70;91.47;94603.81;5075110;28;20625;-61
2020/12/06 08:38:22;;;;;;;66.47;31.97;;;;;;;5.90;92.18;94595.53;5074316;28;20431;-64
2020/12/06 08:41:09;;;;;;;65.57;30.20;;;;;;;5.92;91.84;94599.47;5074771;28;20513;-61
2020/12/06 08:43:53;;;;;;;105.43;41.57;;;;;;;5.84;91.95;94606.88;5074520;28;20435;-61
2020/12/06 08:46:21;;;;;;;95.83;37.77;;;;;;;5.88;91.99;94593.16;5074993;28;20412;-65
2020/12/06 08:48:49;;;;;;;68.70;29.30;;;;;;;6.08;91.13;94577.00;5074945;28;20408;-64
2020/12/06 08:51:37;;;;;;;37.20;17.60;;;;;;;6.22;90.33;94562.56;5074893;28;20501;-64
2020/12/06 08:54:06;;;;;;;26.53;12.10;;;;;;;6.23;90.28;94574.59;5074443;28;20460;-62
2020/12/06 08:56:34;;;;;;;25.50;12.43;;;;;;;6.27;91.03;94585.31;5074275;28;20895;-61
2020/12/06 08:59:07;;;;;;;39.40;18.63;;;;;;;6.41;90.99;94589.13;5074688;28;20956;-62
2020/12/06 09:01:45;;;;;;;30.40;13.67;;;;;;;6.38;90.90;94581.78;5074666;28;20752;-62
2020/12/06 09:04:10;;;;;;;22.00;12.03;;;;;;;6.51;90.03;94565.75;5073425;28;20434;-61
2020/12/06 09:06:37;;;;;;;24.37;13.40;;;;;;;6.59;90.51;94568.72;5074278;28;20836;-62
2020/12/06 09:09:03;;;;;;;32.50;21.40;;;;;;;6.72;90.17;94560.50;5073566;28;20728;-62
2020/12/06 09:11:28;;;;;;;22.83;12.70;;;;;;;6.83;89.52;94570.00;5073231;28;20558;-62
2020/12/06 09:13:54;;;;;;;19.97;11.20;;;;;;;6.77;87.82;94578.84;5074533;28;20229;-62
2020/12/06 09:16:19;;;;;;;20.10;12.00;;;;;;;6.62;87.86;94577.88;5074230;28;20162;-62
2020/12/06 09:18:44;;;;;;;18.70;11.03;;;;;;;6.61;87.52;94573.69;5073492;28;20539;-62
2020/12/06 09:21:10;;;;;;;19.10;10.50;;;;;;;6.60;88.34;94556.44;5074139;28;20203;-62
2020/12/06 09:23:38;;;;;;;24.50;11.60;;;;;;;6.41;88.47;94569.06;5073872;28;20192;-62
2020/12/06 09:26:04;;;;;;;19.53;11.93;;;;;;;6.38;88.68;94572.13;5074098;28;20536;-62
2020/12/06 09:28:30;;;;;;;16.17;9.50;;;;;;;6.44;89.12;94570.38;5072990;28;20439;-61
2020/12/06 09:30:56;;;;;;;23.87;11.20;;;;;;;6.44;89.72;94576.38;5074102;28;20444;-61
2020/12/06 09:33:22;;;;;;;18.80;10.00;;;;;;;6.29;90.30;94589.25;5074034;28;20996;-61
2020/12/06 09:35:48;;;;;;;19.87;12.23;;;;;;;6.15;89.78;94601.06;5073938;28;20170;-61
2020/12/06 09:38:13;;;;;;;18.20;12.37;;;;;;;5.54;92.01;94612.44;5072985;28;20209;-62
2020/12/06 09:40:39;;;;;;;14.33;10.20;;;;;;;5.39;93.48;94614.78;5073373;28;20481;-60
2020/12/06 09:43:04;;;;;;;18.10;11.23;;;;;;;5.56;93.87;94599.94;5072345;28;20167;-61
2020/12/06 09:45:30;;;;;;;18.97;13.90;;;;;;;5.82;92.24;94598.50;5073903;28;20695;-60
2020/12/06 09:47:55;;;;;;;25.83;19.73;;;;;;;6.00;91.71;94604.25;5072754;28;20648;-62
2020/12/06 09:50:21;;;;;;;17.00;10.83;;;;;;;5.84;91.59;94601.69;5073078;28;20193;-63
2020/12/06 09:52:46;;;;;;;15.27;9.03;;;;;;;5.64;92.47;94614.38;5072813;28;20206;-61
2020/12/06 09:55:11;;;;;;;16.50;10.00;;;;;;;5.53;92.87;94616.03;5073878;28;20182;-61
2020/12/06 09:57:37;;;;;;;15.50;9.60;;;;;;;5.34;93.81;94606.91;5073251;28;20194;-65
2020/12/06 10:00:05;;;;;;;15.03;9.63;;;;;;;5.26;94.84;94604.69;5073247;28;20288;-62
2020/12/06 10:02:30;;;;;;;16.00;9.00;;;;;;;5.29;96.08;94606.81;5073415;28;20169;-61
2020/12/06 10:04:56;;;;;;;17.20;9.57;;;;;;;5.48;94.50;94599.56;5073542;28;20413;-61
2020/12/06 10:07:21;;;;;;;15.23;8.77;;;;;;;5.21;96.25;94584.59;5073350;28;20575;-62
2020/12/06 10:09:47;;;;;;;14.10;10.13;;;;;;;5.50;95.43;94587.88;5073645;28;20216;-62
2020/12/06 10:12:13;;;;;;;15.03;9.30;;;;;;;5.66;94.18;94578.47;5072918;28;20201;-60
2020/12/06 10:14:39;;;;;;;13.77;8.50;;;;;;;5.65;94.99;94572.47;5071677;28;20428;-61
2020/12/06 10:17:04;;;;;;;12.97;9.37;;;;;;;5.70;94.87;94580.38;5072736;28;20446;-61
2020/12/06 10:19:29;;;;;;;13.30;8.40;;;;;;;5.60;95.17;94606.25;5073083;28;20239;-62
2020/12/06 10:21:55;;;;;;;11.43;8.57;;;;;;;5.69;94.11;94619.69;5072880;28;20186;-61
2020/12/06 10:24:20;;;;;;;12.20;8.60;;;;;;;5.86;94.12;94626.47;5073395;28;20651;-61
2020/12/06 10:26:51;;;;;;;12.17;8.17;;;;;;;5.76;94.62;94633.34;5072915;28;20260;-61
2020/12/06 10:29:16;;;;;;;13.87;10.17;;;;;;;5.59;95.46;94628.13;5073353;28;20203;-60
2020/12/06 10:31:41;;;;;;;7.77;6.67;;;;;;;5.35;96.63;94625.91;5073085;28;20412;-61
2020/12/06 10:34:07;;;;;;;10.83;7.77;;;;;;;5.09;97.49;94616.91;5071439;28;20558;-61
2020/12/06 10:36:32;;;;;;;11.13;7.13;;;;;;;5.21;97.09;94610.59;5072791;28;20197;-61
2020/12/06 10:38:57;;;;;;;9.90;6.90;;;;;;;5.39;97.50;94606.97;5073955;28;20202;-61
2020/12/06 10:41:23;;;;;;;7.27;6.03;;;;;;;5.52;95.68;94605.88;5077011;28;20259;-62
2020/12/06 10:43:48;;;;;;;7.70;7.00;;;;;;;5.42;96.59;94606.50;5077007;28;20180;-55
2020/12/06 10:46:13;;;;;;;6.90;6.00;;;;;;;5.43;96.56;94594.28;5074783;28;20261;-61
2020/12/06 10:48:39;;;;;;;9.33;6.10;;;;;;;5.63;95.82;94587.56;5072681;28;20178;-63
2020/12/06 10:51:04;;;;;;;6.67;5.97;;;;;;;5.85;95.94;94585.03;5073718;28;20211;-63
2020/12/06 10:53:30;;;;;;;9.20;5.67;;;;;;;5.82;95.14;94591.47;5073205;28;20213;-64
2020/12/06 10:55:55;;;;;;;7.43;5.90;;;;;;;6.05;93.92;94588.69;5071203;28;20189;-62
2020/12/06 10:58:20;;;;;;;6.50;5.70;;;;;;;5.94;93.76;94586.97;5072311;28;20913;-63
2020/12/06 11:00:46;;;;;;;5.37;4.87;;;;;;;5.53;94.93;94594.41;5073331;28;20194;-62
2020/12/06 11:03:11;;;;;;;7.20;5.40;;;;;;;5.61;95.94;94604.44;5053382;28;20167;-63
2020/12/06 11:05:37;;;;;;;7.77;5.90;;;;;;;5.89;95.07;94597.31;5053445;28;20182;-63
2020/12/06 11:08:02;;;;;;;5.83;5.33;;;;;;;6.02;93.81;94602.19;5052993;28;20207;-64
2020/12/06 11:10:27;;;;;;;6.23;5.37;;;;;;;6.04;93.46;94594.13;5052667;28;20673;-63
2020/12/06 11:12:53;;;;;;;5.67;5.10;;;;;;;5.98;94.46;94597.69;5063853;28;20193;-61
2020/12/06 11:15:18;;;;;;;6.77;4.73;;;;;;;5.79;94.53;94591.97;5072430;28;20182;-63
2020/12/06 11:17:44;;;;;;;6.10;5.50;;;;;;;5.70;95.13;94580.38;5072541;28;20235;-61
2020/12/06 11:20:09;;;;;;;6.00;5.50;;;;;;;5.66;95.41;94579.25;5072572;28;20205;-63
2020/12/06 11:22:34;;;;;;;6.43;5.07;;;;;;;5.70;95.12;94579.56;5072434;28;20183;-62
2020/12/06 11:25:00;;;;;;;6.43;5.83;;;;;;;6.01;95.41;94592.03;5072794;28;20212;-62